Wetterstation Camping Dickerscheid
Wetterdaten: aktuell Dienstag, 23.10.2018 17:41
Datum Zeit Temp. Innen Temp. Auen Feuchte I. Feuchte A. Luftdruck Regen Wind W-Richtung W-Richtung Taupunkt Windchill Windben
23.10.2018 17:41 21,7 C 8,8 C 42 % 84 % 1020,4 hPa 0,0 mm 7,9 km/h (2 Bft) NW 314 6,2 C 7,6 C 25,7 km/h (4 Bft)
23.10.2018 16:41 21,7 C 10,1 C 42 % 80 % 1021,1 hPa 0,0 mm 7,6 km/h (2 Bft) NW 318 6,8 C 10,1 C 16,1 km/h (3 Bft)
23.10.2018 15:41 22,2 C 10,3 C 42 % 83 % 1020,3 hPa 0,0 mm 5,5 km/h (1 Bft) O 80 7,5 C 10,3 C 14,5 km/h (3 Bft)
23.10.2018 14:41 22,1 C 8,7 C 42 % 86 % 1020,4 hPa 0,0 mm 5,5 km/h (1 Bft) W 278 6,5 C 8,1 C 11,3 km/h (2 Bft)
23.10.2018 13:41 22,1 C 7,9 C 42 % 87 % 1021,4 hPa 0,0 mm 2,8 km/h (1 Bft) N 350 5,9 C 7,9 C 11,3 km/h (2 Bft)
23.10.2018 12:41 22,0 C 7,5 C 42 % 90 % 1022,6 hPa 0,0 mm 3,4 km/h (1 Bft) NO 43 6,0 C 7,5 C 6,4 km/h (2 Bft)
23.10.2018 11:41 21,7 C 6,5 C 41 % 93 % 1023,1 hPa 0,0 mm 0,0 km/h (0 Bft) N 0 5,5 C 6,5 C 0,0 km/h (0 Bft)
23.10.2018 10:41 22,2 C 5,5 C 42 % 95 % 1023,6 hPa 0,0 mm 0,0 km/h (0 Bft) N 0 4,8 C 5,5 C 0,0 km/h (0 Bft)
23.10.2018 09:41 21,9 C 4,8 C 42 % 96 % 1024,2 hPa 0,0 mm 0,0 km/h (0 Bft) N 0 4,2 C 4,8 C 0,0 km/h (0 Bft)
23.10.2018 08:41 21,9 C 4,2 C 42 % 96 % 1024,2 hPa 0,0 mm 0,0 km/h (0 Bft) N 0 3,6 C 4,2 C 0,0 km/h (0 Bft)
23.10.2018 07:41 21,8 C 3,9 C 42 % 95 % 1024,3 hPa 0,0 mm 0,0 km/h (0 Bft) N 0 3,2 C 3,9 C 0,0 km/h (0 Bft)
23.10.2018 06:41 21,7 C 3,7 C 42 % 96 % 1025,4 hPa 0,0 mm 0,0 km/h (0 Bft) N 0 3,1 C 3,7 C 0,0 km/h (0 Bft)
23.10.2018 05:41 21,9 C 2,8 C 43 % 96 % 1025,5 hPa 0,0 mm 0,0 km/h (0 Bft) N 0 2,2 C 2,8 C 0,0 km/h (0 Bft)
23.10.2018 04:41 22,0 C 2,9 C 43 % 95 % 1026,2 hPa 0,0 mm 0,0 km/h (0 Bft) N 0 2,2 C 2,9 C 0,0 km/h (0 Bft)
23.10.2018 03:41 22,1 C 3,3 C 43 % 95 % 1028,0 hPa 0,0 mm 0,0 km/h (0 Bft) N 0 2,6 C 3,3 C 0,0 km/h (0 Bft)
23.10.2018 02:41 22,1 C 3,7 C 43 % 95 % 1028,4 hPa 0,0 mm 0,0 km/h (0 Bft) N 0 3,0 C 3,7 C 0,0 km/h (0 Bft)
23.10.2018 01:41 22,3 C 3,8 C 43 % 95 % 1029,0 hPa 0,0 mm 0,0 km/h (0 Bft) N 0 3,1 C 3,8 C 0,0 km/h (0 Bft)
23.10.2018 00:41 22,4 C 4,4 C 43 % 95 % 1029,5 hPa 0,0 mm 0,0 km/h (0 Bft) N 0 3,7 C 4,4 C 0,0 km/h (0 Bft)
22.10.2018 23:41 22,4 C 5,2 C 43 % 95 % 1029,3 hPa 0,0 mm 0,0 km/h (0 Bft) N 0 4,5 C 5,2 C 0,0 km/h (0 Bft)
22.10.2018 22:41 22,6 C 5,8 C 43 % 95 % 1029,5 hPa 0,0 mm 0,0 km/h (0 Bft) N 0 5,1 C 5,8 C 0,0 km/h (0 Bft)
22.10.2018 21:41 22,8 C 6,3 C 43 % 95 % 1029,6 hPa 0,0 mm 0,0 km/h (0 Bft) N 0 5,6 C 6,3 C 0,0 km/h (0 Bft)
22.10.2018 20:41 23,1 C 6,9 C 43 % 96 % 1029,2 hPa 0,0 mm 0,0 km/h (0 Bft) N 0 6,3 C 6,9 C 0,0 km/h (0 Bft)
22.10.2018 19:41 23,1 C 7,7 C 43 % 96 % 1028,8 hPa 0,0 mm 0,0 km/h (0 Bft) N 0 7,1 C 7,7 C 0,0 km/h (0 Bft)
22.10.2018 18:41 22,2 C 7,8 C 44 % 96 % 1028,5 hPa 0,0 mm 0,0 km/h (0 Bft) N 0 7,2 C 7,8 C 0,0 km/h (0 Bft)
22.10.2018 18:00 22,2 C 8,1 C 44 % 96 % 1028,4 hPa 0,0 mm 0,0 km/h (0 Bft) N 0 7,5 C 8,1 C 0,0 km/h (0 Bft)
_ Min-Zeit 17:04 04:50 11:27 16:24 16:11 - 18:00 - - 04:50 04:50 18:00
Minimum _ 21,3 C 2,8 C 39 % 80 % 1019,7 hPa - 0,0 km/h (0 Bft) - - 2,1 C 2,8 C 0,0 km/h (0 Bft)
_ Max-Zeit 20:13 15:54 18:20 18:00 21:17 18:00 16:12 - - 15:54 15:54 16:45
Maximum _ 23,4 C 10,6 C 45 % 96 % 1029,6 hPa 0,0 mm 11,8 km/h
S-SO (2 Bft)
- - 7,7 C 10,6 C 27,4 km/h
S-SW (4 Bft)
Durchschnitt _ 22,2 C 6,1 C 43 % 93 % 1025,8 hPa #0,0 mm 0,9 km/h (0 Bft) N-NW - 5,0 C 6,0 C 2,0 km/h (1 Bft)